AirNav   Pilot Hours Calculator
 
 1508 users online  

53MO Help Heliport
Zalma, Missouri, USA

GOING TO ZALMA?


FAA INFORMATION EFFECTIVE 10 OCTOBER 2019

Location

FAA Identifier: 53MO
Lat/Long: 37-09-05.4100N 090-04-16.7400W
37-09.090167N 090-04.279000W
37.1515028,-90.0713167
(estimated)
Elevation: 475 ft. / 145 m (estimated)
Variation: 01E (1990)
From city: 1 mile S of ZALMA, MO
Time zone: UTC -5 (UTC -6 during Standard Time)
Zip code: 63782

Heliport Operations

Heliport use: Private use. Permission required prior to landing
Activation date: 04/1993
Control tower: no
ARTCC: MEMPHIS CENTER
FSS: SAINT LOUIS FLIGHT SERVICE STATION
Attendance: UNATNDD
Segmented circle: no

Nearby radio navigation aids

VOR radial/distance  VOR name  Freq  Var
CGIr261/24.3CAPE GIRARDEAU VOR/DME112.9002W
FAMr165/32.3FARMINGTON VORTAC115.7001E
MAWr345/36.6MALDEN VORTAC111.2003E

Heliport Services

Runway Information

Helipad H1

Dimensions: 30 x 18 ft. / 9 x 5 m
Surface: concrete
Latitude: 37-09.090167N
Longitude: 090-04.274500W
Elevation: 391.0 ft.
Traffic pattern: leftleft

Heliport Ownership and Management from official FAA records

Ownership: Privately-owned
Owner: ZALMA NEIGHBORHOOD WATCH
ROUTE 1
ZALMA, MO 63787
Phone 573-722-5766
Manager: CONRAD WARD - CHIEF OF POLICE
ROUTE 1
ZALMA, MO 63787
Phone 314-238-2633

Additional Remarks

FOR CD CTC MEMPHIS ARTCC AT 901-368-8453.

Instrument Procedures

There are no published instrument procedures at 53MO.

Some nearby airports with instrument procedures:

KDXE - Dexter Municipal Airport (23 nm S)
KCGI - Cape Girardeau Regional Airport (24 nm E)
KPOF - Poplar Bluff Municipal Airport (26 nm SW)
KSIK - Sikeston Memorial Municipal Airport (29 nm SE)
H88 - A Paul Vance Fredericktown Regional Airport (29 nm N)
 
Loc | Ops | Rwys | IFR | FBO | Links
Com | Nav | Svcs | Stats | Notes

Kansas City Aviation Department
 
Area around 53MO (Help Heliport)
 
Road maps at: MapQuest Bing Google
 
Aerial photo
No photo
 
Sectional chart

 
Airport distance calculator
Flying to Help Heliport? Find the distance to fly.

From to 53MO

Sunrise and sunset
Times for 17-Oct-2019
 Local
(UTC-5)
 Zulu
(UTC)
Morning civil twilight06:4511:45
Sunrise07:1112:11
Sunset18:2023:20
Evening civil twilight18:4723:47

Current date and time
Zulu (UTC)  17-Oct-2019 16:46:51
Local (UTC-5)  17-Oct-2019 11:46:51
 
METAR
KCGI 
24nm E 
171553Z 00000KT 10SM CLR 12/03 A3012 RMK AO2 SLP199 T01220028
KPOF 
26nm SW 
171553Z AUTO VRB03KT 10SM CLR 12/04 A3012 RMK AO2 SLP200 T01170044
KSIK 
29nm SE 
171635Z AUTO 00000KT 10SM CLR 13/05 A3012 RMK AO2
KMAW 
33nm S 
171635Z AUTO 10SM CLR 13/04 A3012 RMK AO2 TSNO
KFAM 
40nm NW 
171556Z AUTO 00000KT 10SM CLR 12/04 A3011 RMK AO2 SLP209 T01170044
KCIR 
41nm E 
171635Z AUTO 34004KT 10SM CLR 13/03 A3012 RMK AO2 T01280034
KPCD 
44nm N 
171635Z AUTO 30004KT 10SM CLR 12/04 A3012 RMK AO2 T01230037
TAF
KCGI 
24nm E 
171120Z 1712/1812 00000KT P6SM SKC FM171500 29005KT P6SM SKC FM180000 00000KT P6SM SKC
NOTAMs
Click for the latest NOTAMs
NOTAMs are issued by the DoD/FAA and will open in a separate window not controlled by AirNav.

 

 
 

Would you like to see your business listed on this page?

 If your business provides an interesting product or service to pilots, flight crews, aircraft, or users of the Help Heliport, you should consider listing it here.  To start the listing process, click on the button below
 
Add a business
 

Other Pages about Help Heliport

Update a link
 
Copyright © AirNav, LLC. All rights reserved. Privacy Policy  Contact